Bertrange, Luxembourg
Current Conditions -  °F | °C
As of 9:20 AM on Sunday 26 Oct 2014 (Local Time) from ELLX Reporting Station
Moderate Fog Moderate Fog  
Wind Chill: 46°   Ceiling: 100
Heat Index: 46°   Visibility: 0.25mi
Dew Point: 46°   Wind: 3mph
Humidity: 100%   Direction: NA
Pressure: 30.3"   Gusts: NA
Location:  49.61°N, 6.05°E
Report Text: ELLX 260720Z VRB03KT 0400 R24///// FG BKN001 BKN039 08/08 Q1026 TEMPO 0200 FG BKN001
Loading
Personal Weather Stations






























Interactive Weather Map
Tropical Storm Tracking
New forecast layout! Learn more

10-Day Weather Forecast

Advertisements
Track Severe Weather on mobile